الصفحة الرئيسية
METAR-TAF:

METAR-TAF

مطار :

Bucaramanga, كولومبيا

دائرة عرض: 07-06N, خط طول: 073-12W, ارتفاع: 1189 متر

مراقبة الطقس الحالي

تاريخ ووقت الإصدار 35 دقيقة قبل الساعة 04:00UTC
ريح 4 عقدة من الشرق/الشمال الشرقي
درجة الحرارة 22°درجة مئوية
الرطوبة 83%
ضغط 1015 hPa
الرؤية 10 كم أو أكثر
غيوم قليلة على ارتفاع 1000 قدم
غيوم متفرقة على ارتفاع 7000 قدم

METAR: SKBG 090400Z 06004KT 9999 FEW010 SCT070 22/19 Q1015

زمن: 23:35 (04:35 UTC)

توقعات

تاريخ ووقت الإصدار 6ساعات و 5 دقيقة قبل الساعة 22:30UTC
التوقعات صالحة من09 الساعة 00 UTC إلى 09 الساعة 24 UTC
ريح 10 عقدة من الشمال الغربي
الرؤية 10 كم أو أكثر
غيوم متفرقة على ارتفاع 2000 قدم
أصبح
من 09 الساعة 02 UTC إلى 09 الساعة 04 UTC
ريح 2 عقدةمن اتجاهات متغيرة

TAF: SKBG 082230Z 0900/0924 31010KT 9999 SCT020 BECMG 0902/0904 VRB02KT TX29/0919Z TN20/0910Z

أرصاد الطقس والتوقعات من أكثر من 4000 مطار (تقارير الطقس للمطار METAR والتنبؤ بالطقس بالمطارTAF).

المحطات المتاحة هي النقط الصفراء والحمراء على الخريطة.

حرك المؤشر فوق النقطة لمعرفة اسم المحطة.

ثم انقر لمعرفة أرصاد وتوقعات الطقس.

لتغيير الخارطة: اضغط على الأزرار الخضراء مع رمز الصليب الأسود للتكبير. على الزر الأخضر مع شرطة للتصغير، أو على الأسهم الخضراء للخرائط المجاورة.


METAR-TAF: